Time,TemperatureF,DewpointF,PressureIn,WindDirection,WindDirectionDegrees,WindSpeedMPH,WindSpeedGustMPH,Humidity,HourlyPrecipIn,Conditions,Clouds,dailyrainin,SoftwareType,DateUTC
2013-05-05 00:02:00,50.4,49.3,30.19,NNE,22,6.3,-999.0,96,-99.99,,,0.00,Acu-Link.com,2013-05-05 04:02:00,
2013-05-05 00:18:00,49.8,12.5,30.18,North,0,4.7,-999.0,22,-99.99,,,0.00,Acu-Link.com,2013-05-05 04:18:00,
2013-05-05 00:33:00,49.5,-9.3,30.19,NNE,22,3.2,-999.0,8,-99.99,,,0.00,Acu-Link.com,2013-05-05 04:33:00,
2013-05-05 00:48:00,49.6,27.5,30.18,ESE,112,6.3,-999.0,42,-99.99,,,0.00,Acu-Link.com,2013-05-05 04:48:00,
2013-05-05 01:03:00,49.6,-47.2,30.18,East,90,5.3,-999.0,1,-99.99,,,0.00,Acu-Link.com,2013-05-05 05:03:00,
2013-05-05 01:19:00,50.0,49.5,30.17,ESE,112,3.7,-999.0,98,-99.99,,,0.00,Acu-Link.com,2013-05-05 05:19:00,
2013-05-05 01:34:00,50.4,46.1,30.17,SE,135,4.2,-999.0,85,-99.99,,,0.00,Acu-Link.com,2013-05-05 05:34:00,
2013-05-05 01:49:00,50.5,49.1,30.16,NE,45,7.3,-999.0,95,-99.99,,,0.00,Acu-Link.com,2013-05-05 05:49:00,
2013-05-05 02:04:00,50.2,44.6,30.16,NNE,22,3.2,-999.0,81,-99.99,,,0.00,Acu-Link.com,2013-05-05 06:04:00,
2013-05-05 02:19:00,50.4,49.9,30.15,East,90,6.3,-999.0,98,-99.99,,,0.00,Acu-Link.com,2013-05-05 06:19:00,
2013-05-05 02:34:00,50.0,49.5,30.15,NE,45,7.3,-999.0,98,-99.99,,,0.00,Acu-Link.com,2013-05-05 06:34:00,
2013-05-05 02:50:00,49.6,49.1,30.15,NNW,337,8.9,-999.0,98,-99.99,,,0.00,Acu-Link.com,2013-05-05 06:50:00,
2013-05-05 03:05:00,49.5,49.0,30.14,NNE,22,7.3,-999.0,98,-99.99,,,0.00,Acu-Link.com,2013-05-05 07:05:00,
2013-05-05 03:20:00,49.8,49.3,30.14,NE,45,5.8,-999.0,98,-99.99,,,0.00,Acu-Link.com,2013-05-05 07:20:00,
2013-05-05 03:35:00,49.6,49.1,30.14,NE,45,10.4,-999.0,98,-99.99,,,0.00,Acu-Link.com,2013-05-05 07:35:00,
2013-05-05 03:50:00,49.6,49.1,30.15,NNE,22,8.9,-999.0,98,-99.99,,,0.00,Acu-Link.com,2013-05-05 07:50:00,
2013-05-05 04:14:00,49.6,49.1,30.14,ENE,67,7.8,-999.0,98,-99.99,,,0.00,Acu-Link.com,2013-05-05 08:14:00,
2013-05-05 04:29:00,49.5,49.0,30.14,NE,45,7.8,-999.0,98,-99.99,,,0.00,Acu-Link.com,2013-05-05 08:29:00,
2013-05-05 04:44:00,49.8,49.3,30.14,North,0,8.9,-999.0,98,-99.99,,,0.00,Acu-Link.com,2013-05-05 08:44:00,
2013-05-05 04:59:00,49.5,49.0,30.14,NNE,22,9.9,-999.0,98,-99.99,,,0.00,Acu-Link.com,2013-05-05 08:59:00,
2013-05-05 05:14:00,49.5,43.9,30.14,NE,45,6.3,-999.0,81,-99.99,,,0.00,Acu-Link.com,2013-05-05 09:14:00,
2013-05-05 05:29:00,49.6,45.0,30.14,ENE,67,6.3,-999.0,84,-99.99,,,0.00,Acu-Link.com,2013-05-05 09:29:00,
2013-05-05 05:44:00,49.5,47.8,30.14,NNE,22,6.8,-999.0,94,-99.99,,,0.00,Acu-Link.com,2013-05-05 09:44:00,
2013-05-05 05:59:00,49.3,15.9,30.14,NE,45,14.0,-999.0,26,-99.99,,,0.00,Acu-Link.com,2013-05-05 09:59:00,
2013-05-05 06:14:00,49.5,34.0,30.14,NE,45,5.3,-999.0,55,-99.99,,,0.00,Acu-Link.com,2013-05-05 10:14:00,
2013-05-05 06:29:00,49.3,3.6,30.15,NE,45,10.4,-999.0,15,-99.99,,,0.00,Acu-Link.com,2013-05-05 10:29:00,
2013-05-05 06:44:00,49.1,-47.5,30.15,NE,45,11.4,-999.0,1,-99.99,,,0.00,Acu-Link.com,2013-05-05 10:44:00,
2013-05-05 07:00:00,49.1,-47.5,30.15,NNE,22,8.3,-999.0,1,-99.99,,,0.00,Acu-Link.com,2013-05-05 11:00:00,
2013-05-05 07:15:00,49.3,-47.4,30.16,NE,45,7.3,-999.0,1,-99.99,,,0.00,Acu-Link.com,2013-05-05 11:15:00,
2013-05-05 07:30:00,49.5,-47.3,30.16,NE,45,9.4,-999.0,1,-99.99,,,0.00,Acu-Link.com,2013-05-05 11:30:00,
2013-05-05 07:45:00,49.3,-9.5,30.17,NE,45,9.4,-999.0,8,-99.99,,,0.00,Acu-Link.com,2013-05-05 11:45:00,
2013-05-05 08:00:00,50.0,-46.9,30.18,NE,45,7.3,-999.0,1,-99.99,,,0.00,Acu-Link.com,2013-05-05 12:00:00,
2013-05-05 08:15:00,49.5,-47.3,30.18,NE,45,8.3,-999.0,1,-99.99,,,0.00,Acu-Link.com,2013-05-05 12:15:00,
2013-05-05 08:30:00,48.9,-47.6,30.19,NE,45,9.4,-999.0,1,-99.99,,,0.00,Acu-Link.com,2013-05-05 12:30:00,
2013-05-05 08:45:00,49.5,-35.5,30.19,NNE,22,9.9,-999.0,2,-99.99,,,0.00,Acu-Link.com,2013-05-05 12:45:00,
2013-05-05 09:00:00,49.8,-47.1,30.18,NNE,22,11.9,-999.0,1,-99.99,,,0.00,Acu-Link.com,2013-05-05 13:00:00,
2013-05-05 09:15:00,50.2,-46.8,30.19,NE,45,6.8,-999.0,1,-99.99,,,0.00,Acu-Link.com,2013-05-05 13:15:00,
2013-05-05 09:30:00,50.2,-46.8,30.19,NNE,22,10.4,-999.0,1,-99.99,,,0.00,Acu-Link.com,2013-05-05 13:30:00,
2013-05-05 09:45:00,50.5,-46.6,30.19,NE,45,10.9,-999.0,1,-99.99,,,0.00,Acu-Link.com,2013-05-05 13:45:00,
2013-05-05 10:01:00,51.4,-46.1,30.19,NE,45,5.8,-999.0,1,-99.99,,,0.00,Acu-Link.com,2013-05-05 14:01:00,
2013-05-05 10:16:00,51.8,-45.8,30.19,NE,45,11.4,-999.0,1,-99.99,,,0.00,Acu-Link.com,2013-05-05 14:16:00,
2013-05-05 10:31:00,53.1,-45.1,30.19,NE,45,9.9,-999.0,1,-99.99,,,0.00,Acu-Link.com,2013-05-05 14:31:00,
2013-05-05 10:46:00,52.9,-45.2,30.19,NE,45,13.0,-999.0,1,-99.99,,,0.00,Acu-Link.com,2013-05-05 14:46:00,
2013-05-05 11:01:00,52.9,-45.2,30.19,NE,45,11.4,-999.0,1,-99.99,,,0.00,Acu-Link.com,2013-05-05 15:01:00,
2013-05-05 11:16:00,53.8,-44.6,30.19,NNE,22,7.8,-999.0,1,-99.99,,,0.00,Acu-Link.com,2013-05-05 15:16:00,
2013-05-05 11:31:00,53.2,-45.0,30.19,ENE,67,7.3,-999.0,1,-99.99,,,0.00,Acu-Link.com,2013-05-05 15:31:00,
2013-05-05 11:46:00,53.8,-44.6,30.19,East,90,5.3,-999.0,1,-99.99,,,0.00,Acu-Link.com,2013-05-05 15:46:00,
2013-05-05 12:01:00,54.5,-44.2,30.19,NE,45,7.8,-999.0,1,-99.99,,,0.00,Acu-Link.com,2013-05-05 16:01:00,
2013-05-05 12:16:00,54.3,-44.3,30.18,NNE,22,5.8,-999.0,1,-99.99,,,0.00,Acu-Link.com,2013-05-05 16:16:00,
2013-05-05 12:31:00,53.2,-45.0,30.19,East,90,9.9,-999.0,1,-99.99,,,0.00,Acu-Link.com,2013-05-05 16:31:00,
2013-05-05 12:46:00,54.5,-44.2,30.18,NE,45,10.4,-999.0,1,-99.99,,,0.00,Acu-Link.com,2013-05-05 16:46:00,
2013-05-05 13:01:00,53.4,-44.9,30.18,NE,45,10.9,-999.0,1,-99.99,,,0.00,Acu-Link.com,2013-05-05 17:01:00,
2013-05-05 13:16:00,54.1,-44.4,30.18,NE,45,4.2,-999.0,1,-99.99,,,0.00,Acu-Link.com,2013-05-05 17:16:00,
2013-05-05 13:31:00,54.3,-44.3,30.18,ENE,67,5.3,-999.0,1,-99.99,,,0.00,Acu-Link.com,2013-05-05 17:31:00,
2013-05-05 13:47:00,54.3,-44.3,30.19,NNW,337,7.8,-999.0,1,-99.99,,,0.00,Acu-Link.com,2013-05-05 17:47:00,
2013-05-05 14:02:00,54.1,-44.4,30.19,NNE,22,3.7,-999.0,1,-99.99,,,0.00,Acu-Link.com,2013-05-05 18:02:00,
2013-05-05 14:17:00,53.8,-44.6,30.18,North,0,6.8,-999.0,1,-99.99,,,0.00,Acu-Link.com,2013-05-05 18:17:00,
2013-05-05 14:32:00,53.6,-12.1,30.18,NNE,22,5.3,-999.0,6,-99.99,,,0.00,Acu-Link.com,2013-05-05 18:32:00,
2013-05-05 14:47:00,53.6,23.7,30.18,East,90,4.7,-999.0,31,-99.99,,,0.00,Acu-Link.com,2013-05-05 18:47:00,
2013-05-05 15:02:00,53.4,0.2,30.17,ESE,112,8.9,-999.0,11,-99.99,,,0.00,Acu-Link.com,2013-05-05 19:02:00,
2013-05-05 15:18:00,53.6,-20.0,30.17,NE,45,6.3,-999.0,4,-99.99,,,0.00,Acu-Link.com,2013-05-05 19:18:00,
2013-05-05 15:33:00,54.1,-44.4,30.16,ENE,67,8.9,-999.0,1,-99.99,,,0.00,Acu-Link.com,2013-05-05 19:33:00,
2013-05-05 15:48:00,53.1,-45.1,30.16,ENE,67,5.3,-999.0,1,-99.99,,,0.00,Acu-Link.com,2013-05-05 19:48:00,
2013-05-05 16:03:00,53.4,11.0,30.16,NNE,22,3.7,-999.0,18,-99.99,,,0.00,Acu-Link.com,2013-05-05 20:03:00,
2013-05-05 16:18:00,53.1,40.8,30.15,NE,45,6.8,-999.0,63,-99.99,,,0.00,Acu-Link.com,2013-05-05 20:18:00,
2013-05-05 16:34:00,52.9,32.1,30.15,NE,45,8.9,-999.0,45,-99.99,,,0.00,Acu-Link.com,2013-05-05 20:34:00,
2013-05-05 16:49:00,53.2,-45.0,30.14,ENE,67,4.7,-999.0,1,-99.99,,,0.00,Acu-Link.com,2013-05-05 20:49:00,
2013-05-05 17:04:00,54.5,-44.2,30.14,East,90,5.8,-999.0,1,-99.99,,,0.00,Acu-Link.com,2013-05-05 21:04:00,
2013-05-05 17:20:00,53.6,-44.7,30.14,NE,45,5.8,-999.0,1,-99.99,,,0.00,Acu-Link.com,2013-05-05 21:20:00,
2013-05-05 17:35:00,54.0,-44.5,30.14,ENE,67,5.8,-999.0,1,-99.99,,,0.00,Acu-Link.com,2013-05-05 21:35:00,
2013-05-05 17:50:00,53.6,-44.7,30.14,ESE,112,6.8,-999.0,1,-99.99,,,0.00,Acu-Link.com,2013-05-05 21:50:00,
2013-05-05 18:05:00,53.6,-44.7,30.13,NNE,22,6.3,-999.0,1,-99.99,,,0.00,Acu-Link.com,2013-05-05 22:05:00,
2013-05-05 18:20:00,52.9,39.8,30.14,NE,45,5.3,-999.0,61,-99.99,,,0.00,Acu-Link.com,2013-05-05 22:20:00,
2013-05-05 18:35:00,52.0,51.5,30.13,East,90,8.3,-999.0,98,-99.99,,,0.00,Acu-Link.com,2013-05-05 22:35:00,
2013-05-05 18:50:00,51.6,51.1,30.13,NE,45,4.7,-999.0,98,-99.99,,,0.00,Acu-Link.com,2013-05-05 22:50:00,
2013-05-05 19:06:00,51.8,51.3,30.13,NNE,22,7.3,-999.0,98,-99.99,,,0.00,Acu-Link.com,2013-05-05 23:06:00,
2013-05-05 19:21:00,51.6,51.1,30.14,NE,45,7.8,-999.0,98,-99.99,,,0.00,Acu-Link.com,2013-05-05 23:21:00,
2013-05-05 19:36:00,51.8,51.3,30.14,NE,45,7.3,-999.0,98,-99.99,,,0.00,Acu-Link.com,2013-05-05 23:36:00,
2013-05-05 19:51:00,51.8,51.3,30.15,NE,45,5.8,-999.0,98,-99.99,,,0.00,Acu-Link.com,2013-05-05 23:51:00,
2013-05-05 20:08:00,51.8,51.3,30.14,NE,45,3.7,-999.0,98,-99.99,,,0.00,Acu-Link.com,2013-05-06 00:08:00,
2013-05-05 20:23:00,52.2,51.7,30.14,NNE,22,4.7,-999.0,98,-99.99,,,0.00,Acu-Link.com,2013-05-06 00:23:00,
2013-05-05 20:38:00,51.8,51.3,30.13,NNE,22,4.7,-999.0,98,-99.99,,,0.00,Acu-Link.com,2013-05-06 00:38:00,
2013-05-05 20:54:00,52.2,51.7,30.14,NNE,22,3.2,-999.0,98,-99.99,,,0.00,Acu-Link.com,2013-05-06 00:54:00,
2013-05-05 21:09:00,52.3,51.8,30.13,West,270,1.1,-999.0,98,-99.99,,,0.00,Acu-Link.com,2013-05-06 01:09:00,
2013-05-05 21:24:00,52.5,52.0,30.13,ENE,67,4.7,-999.0,98,-99.99,,,0.00,Acu-Link.com,2013-05-06 01:24:00,
2013-05-05 21:39:00,52.3,51.8,30.12,NE,45,4.7,-999.0,98,-99.99,,,0.00,Acu-Link.com,2013-05-06 01:39:00,
2013-05-05 21:54:00,52.5,52.0,30.12,NE,45,3.7,-999.0,98,-99.99,,,0.00,Acu-Link.com,2013-05-06 01:54:00,
2013-05-05 22:10:00,52.7,52.2,30.13,East,90,4.2,-999.0,98,-99.99,,,0.00,Acu-Link.com,2013-05-06 02:10:00,
2013-05-05 22:25:00,52.5,52.0,30.13,East,90,4.7,-999.0,98,-99.99,,,0.00,Acu-Link.com,2013-05-06 02:25:00,
2013-05-05 22:40:00,52.9,52.4,30.13,ENE,67,6.3,-999.0,98,-99.99,,,0.00,Acu-Link.com,2013-05-06 02:40:00,
2013-05-05 22:55:00,52.7,52.2,30.12,NNE,22,2.2,-999.0,98,-99.99,,,0.00,Acu-Link.com,2013-05-06 02:55:00,
2013-05-05 23:11:00,53.1,52.5,30.12,NE,45,3.7,-999.0,98,-99.99,,,0.00,Acu-Link.com,2013-05-06 03:11:00,
2013-05-05 23:26:00,53.2,52.6,30.11,North,0,3.2,-999.0,98,-99.99,,,0.00,Acu-Link.com,2013-05-06 03:26:00,
2013-05-05 23:41:00,53.2,52.6,30.11,NNE,22,5.8,-999.0,98,-99.99,,,0.00,Acu-Link.com,2013-05-06 03:41:00,
2013-05-05 23:56:00,53.4,52.8,30.11,NNE,22,4.2,-999.0,98,-99.99,,,0.00,Acu-Link.com,2013-05-06 03:56:00,